sensor_id;sensor_type;location;lat;lon;timestamp;P1;durP1;ratioP1;P2;durP2;ratioP2
19877;SDS011;10101;52.204;9.910;2023-04-24T00:00:08;0.87;;;0.87;;
19877;SDS011;10101;52.204;9.910;2023-04-24T00:02:37;0.80;;;0.80;;
19877;SDS011;10101;52.204;9.910;2023-04-24T00:05:06;1.93;;;0.90;;
19877;SDS011;10101;52.204;9.910;2023-04-24T00:07:35;1.13;;;0.90;;
19877;SDS011;10101;52.204;9.910;2023-04-24T00:10:02;0.70;;;0.70;;
19877;SDS011;10101;52.204;9.910;2023-04-24T00:12:30;0.87;;;0.80;;
19877;SDS011;10101;52.204;9.910;2023-04-24T00:14:57;0.80;;;0.80;;
19877;SDS011;10101;52.204;9.910;2023-04-24T00:17:23;1.17;;;0.93;;
19877;SDS011;10101;52.204;9.910;2023-04-24T00:19:50;1.73;;;0.80;;
19877;SDS011;10101;52.204;9.910;2023-04-24T00:22:23;1.60;;;1.00;;
19877;SDS011;10101;52.204;9.910;2023-04-24T00:24:51;3.53;;;0.90;;
19877;SDS011;10101;52.204;9.910;2023-04-24T00:27:19;1.10;;;1.00;;
19877;SDS011;10101;52.204;9.910;2023-04-24T00:29:46;3.03;;;1.13;;
19877;SDS011;10101;52.204;9.910;2023-04-24T00:32:13;1.20;;;0.90;;
19877;SDS011;10101;52.204;9.910;2023-04-24T00:34:40;3.03;;;1.10;;
19877;SDS011;10101;52.204;9.910;2023-04-24T00:37:07;0.70;;;0.70;;
19877;SDS011;10101;52.204;9.910;2023-04-24T00:39:34;2.57;;;1.03;;
19877;SDS011;10101;52.204;9.910;2023-04-24T00:42:02;1.20;;;1.00;;
19877;SDS011;10101;52.204;9.910;2023-04-24T00:44:31;1.60;;;0.97;;
19877;SDS011;10101;52.204;9.910;2023-04-24T00:46:58;0.97;;;0.97;;
19877;SDS011;10101;52.204;9.910;2023-04-24T00:49:25;0.80;;;0.80;;
19877;SDS011;10101;52.204;9.910;2023-04-24T00:51:52;3.10;;;0.87;;
19877;SDS011;10101;52.204;9.910;2023-04-24T00:54:19;1.03;;;1.00;;
19877;SDS011;10101;52.204;9.910;2023-04-24T00:56:46;2.70;;;1.00;;
19877;SDS011;10101;52.204;9.910;2023-04-24T00:59:14;1.17;;;1.00;;
19877;SDS011;10101;52.204;9.910;2023-04-24T01:01:43;1.00;;;0.93;;
19877;SDS011;10101;52.204;9.910;2023-04-24T01:04:10;2.53;;;0.93;;
19877;SDS011;10101;52.204;9.910;2023-04-24T01:06:39;1.10;;;0.90;;
19877;SDS011;10101;52.204;9.910;2023-04-24T01:09:06;2.10;;;0.90;;
19877;SDS011;10101;52.204;9.910;2023-04-24T01:11:34;1.23;;;1.10;;
19877;SDS011;10101;52.204;9.910;2023-04-24T01:14:00;2.53;;;1.10;;
19877;SDS011;10101;52.204;9.910;2023-04-24T01:16:29;1.03;;;0.90;;
19877;SDS011;10101;52.204;9.910;2023-04-24T01:18:55;0.80;;;0.80;;
19877;SDS011;10101;52.204;9.910;2023-04-24T01:21:22;0.97;;;0.90;;
19877;SDS011;10101;52.204;9.910;2023-04-24T01:23:54;1.27;;;0.87;;
19877;SDS011;10101;52.204;9.910;2023-04-24T01:26:21;1.80;;;1.10;;
19877;SDS011;10101;52.204;9.910;2023-04-24T01:28:50;2.17;;;1.07;;
19877;SDS011;10101;52.204;9.910;2023-04-24T01:31:18;1.50;;;0.90;;
19877;SDS011;10101;52.204;9.910;2023-04-24T01:33:44;1.10;;;1.00;;
19877;SDS011;10101;52.204;9.910;2023-04-24T01:36:11;2.30;;;0.93;;
19877;SDS011;10101;52.204;9.910;2023-04-24T01:38:39;1.57;;;1.00;;
19877;SDS011;10101;52.204;9.910;2023-04-24T01:41:07;1.63;;;0.90;;
19877;SDS011;10101;52.204;9.910;2023-04-24T01:43:34;2.43;;;0.93;;
19877;SDS011;10101;52.204;9.910;2023-04-24T01:46:01;1.40;;;1.00;;
19877;SDS011;10101;52.204;9.910;2023-04-24T01:48:28;1.03;;;0.90;;
19877;SDS011;10101;52.204;9.910;2023-04-24T01:50:55;0.90;;;0.90;;
19877;SDS011;10101;52.204;9.910;2023-04-24T01:53:23;3.10;;;1.13;;
19877;SDS011;10101;52.204;9.910;2023-04-24T01:55:49;1.37;;;0.90;;
19877;SDS011;10101;52.204;9.910;2023-04-24T01:58:17;1.60;;;0.90;;
19877;SDS011;10101;52.204;9.910;2023-04-24T02:00:44;1.07;;;1.00;;
19877;SDS011;10101;52.204;9.910;2023-04-24T02:03:11;2.53;;;1.17;;
19877;SDS011;10101;52.204;9.910;2023-04-24T02:05:38;1.00;;;0.80;;
19877;SDS011;10101;52.204;9.910;2023-04-24T02:08:04;0.70;;;0.70;;
19877;SDS011;10101;52.204;9.910;2023-04-24T02:10:31;1.00;;;0.83;;
19877;SDS011;10101;52.204;9.910;2023-04-24T02:12:58;2.07;;;0.80;;
19877;SDS011;10101;52.204;9.910;2023-04-24T02:15:27;1.10;;;0.73;;
19877;SDS011;10101;52.204;9.910;2023-04-24T02:17:53;0.93;;;0.73;;
19877;SDS011;10101;52.204;9.910;2023-04-24T02:20:20;0.70;;;0.70;;
19877;SDS011;10101;52.204;9.910;2023-04-24T02:22:47;0.60;;;0.60;;
19877;SDS011;10101;52.204;9.910;2023-04-24T02:25:14;3.30;;;0.80;;
19877;SDS011;10101;52.204;9.910;2023-04-24T02:27:40;1.17;;;0.80;;
19877;SDS011;10101;52.204;9.910;2023-04-24T02:30:09;0.80;;;0.80;;
19877;SDS011;10101;52.204;9.910;2023-04-24T02:32:37;1.17;;;0.70;;
19877;SDS011;10101;52.204;9.910;2023-04-24T02:35:04;0.80;;;0.80;;
19877;SDS011;10101;52.204;9.910;2023-04-24T02:37:31;1.40;;;0.70;;
19877;SDS011;10101;52.204;9.910;2023-04-24T02:39:58;1.67;;;0.80;;
19877;SDS011;10101;52.204;9.910;2023-04-24T02:42:25;2.33;;;0.97;;
19877;SDS011;10101;52.204;9.910;2023-04-24T02:44:52;1.50;;;0.87;;
19877;SDS011;10101;52.204;9.910;2023-04-24T02:47:18;1.37;;;1.10;;
19877;SDS011;10101;52.204;9.910;2023-04-24T02:49:46;0.87;;;0.87;;
19877;SDS011;10101;52.204;9.910;2023-04-24T02:52:13;1.10;;;0.90;;
19877;SDS011;10101;52.204;9.910;2023-04-24T02:54:41;2.70;;;0.60;;
19877;SDS011;10101;52.204;9.910;2023-04-24T02:57:08;0.90;;;0.90;;
19877;SDS011;10101;52.204;9.910;2023-04-24T02:59:35;1.13;;;0.80;;
19877;SDS011;10101;52.204;9.910;2023-04-24T03:02:01;0.70;;;0.70;;
19877;SDS011;10101;52.204;9.910;2023-04-24T03:04:28;1.33;;;0.83;;
19877;SDS011;10101;52.204;9.910;2023-04-24T03:06:56;2.50;;;0.90;;
19877;SDS011;10101;52.204;9.910;2023-04-24T03:09:23;0.60;;;0.60;;
19877;SDS011;10101;52.204;9.910;2023-04-24T03:11:50;1.60;;;0.70;;
19877;SDS011;10101;52.204;9.910;2023-04-24T03:14:17;0.83;;;0.60;;
19877;SDS011;10101;52.204;9.910;2023-04-24T03:16:44;1.53;;;0.70;;
19877;SDS011;10101;52.204;9.910;2023-04-24T03:19:11;2.23;;;0.70;;
19877;SDS011;10101;52.204;9.910;2023-04-24T03:21:38;0.70;;;0.70;;
19877;SDS011;10101;52.204;9.910;2023-04-24T03:24:07;1.37;;;0.80;;
19877;SDS011;10101;52.204;9.910;2023-04-24T03:26:34;0.87;;;0.60;;
19877;SDS011;10101;52.204;9.910;2023-04-24T03:29:01;0.70;;;0.60;;
19877;SDS011;10101;52.204;9.910;2023-04-24T03:31:27;0.70;;;0.70;;
19877;SDS011;10101;52.204;9.910;2023-04-24T03:33:54;2.30;;;0.70;;
19877;SDS011;10101;52.204;9.910;2023-04-24T03:36:21;0.60;;;0.60;;
19877;SDS011;10101;52.204;9.910;2023-04-24T03:38:48;0.70;;;0.70;;
19877;SDS011;10101;52.204;9.910;2023-04-24T03:41:16;0.97;;;0.80;;
19877;SDS011;10101;52.204;9.910;2023-04-24T03:43:43;0.70;;;0.70;;
19877;SDS011;10101;52.204;9.910;2023-04-24T03:46:10;0.70;;;0.70;;
19877;SDS011;10101;52.204;9.910;2023-04-24T03:48:37;1.47;;;0.57;;
19877;SDS011;10101;52.204;9.910;2023-04-24T03:51:04;0.57;;;0.57;;
19877;SDS011;10101;52.204;9.910;2023-04-24T03:53:30;0.73;;;0.70;;
19877;SDS011;10101;52.204;9.910;2023-04-24T03:55:57;0.70;;;0.70;;
19877;SDS011;10101;52.204;9.910;2023-04-24T03:58:25;0.60;;;0.60;;
19877;SDS011;10101;52.204;9.910;2023-04-24T04:00:52;1.43;;;0.70;;
19877;SDS011;10101;52.204;9.910;2023-04-24T04:03:19;1.03;;;0.90;;
19877;SDS011;10101;52.204;9.910;2023-04-24T04:05:45;0.60;;;0.60;;
19877;SDS011;10101;52.204;9.910;2023-04-24T04:08:12;0.70;;;0.70;;
19877;SDS011;10101;52.204;9.910;2023-04-24T04:10:39;0.57;;;0.57;;
19877;SDS011;10101;52.204;9.910;2023-04-24T04:13:06;0.70;;;0.70;;
19877;SDS011;10101;52.204;9.910;2023-04-24T04:15:34;1.30;;;0.70;;
19877;SDS011;10101;52.204;9.910;2023-04-24T04:18:01;0.90;;;0.63;;
19877;SDS011;10101;52.204;9.910;2023-04-24T04:20:27;0.70;;;0.70;;
19877;SDS011;10101;52.204;9.910;2023-04-24T04:22:54;2.43;;;0.60;;
19877;SDS011;10101;52.204;9.910;2023-04-24T04:25:21;1.03;;;0.60;;
19877;SDS011;10101;52.204;9.910;2023-04-24T04:27:48;0.73;;;0.60;;
19877;SDS011;10101;52.204;9.910;2023-04-24T04:30:16;1.07;;;0.70;;
19877;SDS011;10101;52.204;9.910;2023-04-24T04:32:44;0.73;;;0.60;;
19877;SDS011;10101;52.204;9.910;2023-04-24T04:35:11;0.97;;;0.77;;
19877;SDS011;10101;52.204;9.910;2023-04-24T04:37:37;1.67;;;0.83;;
19877;SDS011;10101;52.204;9.910;2023-04-24T04:40:05;1.20;;;1.00;;
19877;SDS011;10101;52.204;9.910;2023-04-24T04:42:36;0.70;;;0.70;;
19877;SDS011;10101;52.204;9.910;2023-04-24T04:45:05;1.10;;;0.80;;
19877;SDS011;10101;52.204;9.910;2023-04-24T04:47:33;1.90;;;0.80;;
19877;SDS011;10101;52.204;9.910;2023-04-24T04:50:02;0.93;;;0.90;;
19877;SDS011;10101;52.204;9.910;2023-04-24T04:52:30;2.43;;;0.90;;
19877;SDS011;10101;52.204;9.910;2023-04-24T04:54:57;2.00;;;0.97;;
19877;SDS011;10101;52.204;9.910;2023-04-24T04:57:23;0.80;;;0.80;;
19877;SDS011;10101;52.204;9.910;2023-04-24T04:59:50;0.90;;;0.80;;
19877;SDS011;10101;52.204;9.910;2023-04-24T05:02:17;2.27;;;0.90;;
19877;SDS011;10101;52.204;9.910;2023-04-24T05:04:44;1.50;;;1.03;;
19877;SDS011;10101;52.204;9.910;2023-04-24T05:07:12;1.03;;;0.70;;
19877;SDS011;10101;52.204;9.910;2023-04-24T05:09:39;1.07;;;0.80;;
19877;SDS011;10101;52.204;9.910;2023-04-24T05:12:06;0.90;;;0.80;;
19877;SDS011;10101;52.204;9.910;2023-04-24T05:14:33;1.90;;;0.80;;
19877;SDS011;10101;52.204;9.910;2023-04-24T05:16:59;0.60;;;0.60;;
19877;SDS011;10101;52.204;9.910;2023-04-24T05:19:26;0.60;;;0.60;;
19877;SDS011;10101;52.204;9.910;2023-04-24T05:21:53;1.30;;;0.60;;
19877;SDS011;10101;52.204;9.910;2023-04-24T05:24:21;1.57;;;0.80;;
19877;SDS011;10101;52.204;9.910;2023-04-24T05:26:48;1.33;;;0.70;;
19877;SDS011;10101;52.204;9.910;2023-04-24T05:29:14;0.70;;;0.70;;
19877;SDS011;10101;52.204;9.910;2023-04-24T05:31:41;0.90;;;0.70;;
19877;SDS011;10101;52.204;9.910;2023-04-24T05:34:08;0.60;;;0.60;;
19877;SDS011;10101;52.204;9.910;2023-04-24T05:36:35;0.73;;;0.60;;
19877;SDS011;10101;52.204;9.910;2023-04-24T05:39:01;2.93;;;0.60;;
19877;SDS011;10101;52.204;9.910;2023-04-24T05:41:31;1.57;;;0.60;;
19877;SDS011;10101;52.204;9.910;2023-04-24T05:43:58;0.67;;;0.63;;
19877;SDS011;10101;52.204;9.910;2023-04-24T05:46:25;1.20;;;0.80;;
19877;SDS011;10101;52.204;9.910;2023-04-24T05:48:51;0.60;;;0.60;;
19877;SDS011;10101;52.204;9.910;2023-04-24T05:51:18;0.77;;;0.77;;
19877;SDS011;10101;52.204;9.910;2023-04-24T05:53:45;1.90;;;0.57;;
19877;SDS011;10101;52.204;9.910;2023-04-24T05:56:12;1.20;;;0.60;;
19877;SDS011;10101;52.204;9.910;2023-04-24T05:58:40;1.73;;;0.70;;
19877;SDS011;10101;52.204;9.910;2023-04-24T06:01:07;1.30;;;0.57;;
19877;SDS011;10101;52.204;9.910;2023-04-24T06:03:34;1.37;;;0.80;;
19877;SDS011;10101;52.204;9.910;2023-04-24T06:06:01;0.60;;;0.60;;
19877;SDS011;10101;52.204;9.910;2023-04-24T06:08:27;2.40;;;0.50;;
19877;SDS011;10101;52.204;9.910;2023-04-24T06:10:54;0.70;;;0.53;;
19877;SDS011;10101;52.204;9.910;2023-04-24T06:13:21;1.13;;;0.73;;
19877;SDS011;10101;52.204;9.910;2023-04-24T06:15:49;2.10;;;0.70;;
19877;SDS011;10101;52.204;9.910;2023-04-24T06:18:15;4.17;;;0.60;;
19877;SDS011;10101;52.204;9.910;2023-04-24T06:20:42;0.60;;;0.60;;
19877;SDS011;10101;52.204;9.910;2023-04-24T06:23:09;2.03;;;0.50;;
19877;SDS011;10101;52.204;9.910;2023-04-24T06:25:37;1.43;;;0.60;;
19877;SDS011;10101;52.204;9.910;2023-04-24T06:28:04;0.50;;;0.50;;
19877;SDS011;10101;52.204;9.910;2023-04-24T06:30:31;0.93;;;0.60;;
19877;SDS011;10101;52.204;9.910;2023-04-24T06:32:59;2.20;;;0.70;;
19877;SDS011;10101;52.204;9.910;2023-04-24T06:35:25;0.83;;;0.77;;
19877;SDS011;10101;52.204;9.910;2023-04-24T06:37:52;1.47;;;0.87;;
19877;SDS011;10101;52.204;9.910;2023-04-24T06:40:21;0.97;;;0.87;;
19877;SDS011;10101;52.204;9.910;2023-04-24T06:42:48;1.03;;;0.87;;
19877;SDS011;10101;52.204;9.910;2023-04-24T06:45:14;0.83;;;0.83;;
19877;SDS011;10101;52.204;9.910;2023-04-24T06:47:41;6.33;;;0.90;;
19877;SDS011;10101;52.204;9.910;2023-04-24T06:50:10;1.53;;;0.90;;
19877;SDS011;10101;52.204;9.910;2023-04-24T06:52:37;1.20;;;1.00;;
19877;SDS011;10101;52.204;9.910;2023-04-24T06:55:04;2.27;;;1.30;;
19877;SDS011;10101;52.204;9.910;2023-04-24T06:57:31;2.07;;;1.00;;
19877;SDS011;10101;52.204;9.910;2023-04-24T06:59:58;1.30;;;1.20;;
19877;SDS011;10101;52.204;9.910;2023-04-24T07:02:25;2.23;;;1.33;;
19877;SDS011;10101;52.204;9.910;2023-04-24T07:04:52;1.87;;;1.67;;
19877;SDS011;10101;52.204;9.910;2023-04-24T07:07:20;1.40;;;1.30;;
19877;SDS011;10101;52.204;9.910;2023-04-24T07:09:48;1.50;;;1.30;;
19877;SDS011;10101;52.204;9.910;2023-04-24T07:12:15;2.30;;;1.57;;
19877;SDS011;10101;52.204;9.910;2023-04-24T07:14:45;1.80;;;1.60;;
19877;SDS011;10101;52.204;9.910;2023-04-24T07:17:12;1.50;;;1.40;;
19877;SDS011;10101;52.204;9.910;2023-04-24T07:19:39;1.60;;;1.50;;
19877;SDS011;10101;52.204;9.910;2023-04-24T07:22:06;2.07;;;1.70;;
19877;SDS011;10101;52.204;9.910;2023-04-24T07:24:34;2.57;;;1.97;;
19877;SDS011;10101;52.204;9.910;2023-04-24T07:27:01;2.77;;;2.00;;
19877;SDS011;10101;52.204;9.910;2023-04-24T07:29:28;4.20;;;2.23;;
19877;SDS011;10101;52.204;9.910;2023-04-24T07:31:55;4.80;;;2.43;;
19877;SDS011;10101;52.204;9.910;2023-04-24T07:34:21;3.20;;;2.40;;
19877;SDS011;10101;52.204;9.910;2023-04-24T07:36:48;3.43;;;2.77;;
19877;SDS011;10101;52.204;9.910;2023-04-24T07:39:15;3.90;;;3.00;;
19877;SDS011;10101;52.204;9.910;2023-04-24T07:41:43;3.03;;;2.73;;
19877;SDS011;10101;52.204;9.910;2023-04-24T07:44:10;4.60;;;3.03;;
19877;SDS011;10101;52.204;9.910;2023-04-24T07:46:36;5.37;;;3.40;;
19877;SDS011;10101;52.204;9.910;2023-04-24T07:49:03;4.63;;;2.87;;
19877;SDS011;10101;52.204;9.910;2023-04-24T07:51:30;3.93;;;3.43;;
19877;SDS011;10101;52.204;9.910;2023-04-24T07:53:58;6.40;;;3.80;;
19877;SDS011;10101;52.204;9.910;2023-04-24T07:56:25;4.87;;;3.90;;
19877;SDS011;10101;52.204;9.910;2023-04-24T07:58:53;5.93;;;4.03;;
19877;SDS011;10101;52.204;9.910;2023-04-24T08:01:20;5.40;;;4.23;;
19877;SDS011;10101;52.204;9.910;2023-04-24T08:03:46;7.13;;;4.83;;
19877;SDS011;10101;52.204;9.910;2023-04-24T08:06:13;6.20;;;4.20;;
19877;SDS011;10101;52.204;9.910;2023-04-24T08:08:40;6.40;;;4.70;;
19877;SDS011;10101;52.204;9.910;2023-04-24T08:11:07;6.93;;;4.80;;
19877;SDS011;10101;52.204;9.910;2023-04-24T08:13:33;5.80;;;4.33;;
19877;SDS011;10101;52.204;9.910;2023-04-24T08:16:02;6.27;;;4.00;;
19877;SDS011;10101;52.204;9.910;2023-04-24T08:18:29;7.57;;;4.10;;
19877;SDS011;10101;52.204;9.910;2023-04-24T08:20:56;6.90;;;3.93;;
19877;SDS011;10101;52.204;9.910;2023-04-24T08:23:26;5.97;;;4.60;;
19877;SDS011;10101;52.204;9.910;2023-04-24T08:25:53;5.47;;;4.13;;
19877;SDS011;10101;52.204;9.910;2023-04-24T08:28:20;4.87;;;3.57;;
19877;SDS011;10101;52.204;9.910;2023-04-24T08:30:47;5.13;;;3.90;;
19877;SDS011;10101;52.204;9.910;2023-04-24T08:33:20;5.70;;;3.90;;
19877;SDS011;10101;52.204;9.910;2023-04-24T08:35:47;6.00;;;3.10;;
19877;SDS011;10101;52.204;9.910;2023-04-24T08:38:14;5.17;;;3.70;;
19877;SDS011;10101;52.204;9.910;2023-04-24T08:40:41;5.67;;;3.73;;
19877;SDS011;10101;52.204;9.910;2023-04-24T08:43:10;4.57;;;3.30;;
19877;SDS011;10101;52.204;9.910;2023-04-24T08:45:38;5.73;;;3.77;;
19877;SDS011;10101;52.204;9.910;2023-04-24T08:48:05;5.83;;;3.23;;
19877;SDS011;10101;52.204;9.910;2023-04-24T08:50:35;5.50;;;3.63;;
19877;SDS011;10101;52.204;9.910;2023-04-24T08:53:03;4.27;;;3.27;;
19877;SDS011;10101;52.204;9.910;2023-04-24T08:55:30;4.93;;;2.33;;
19877;SDS011;10101;52.204;9.910;2023-04-24T08:57:59;3.70;;;2.70;;
19877;SDS011;10101;52.204;9.910;2023-04-24T09:00:27;6.37;;;2.70;;
19877;SDS011;10101;52.204;9.910;2023-04-24T09:02:54;3.90;;;2.90;;
19877;SDS011;10101;52.204;9.910;2023-04-24T09:05:22;3.57;;;2.67;;
19877;SDS011;10101;52.204;9.910;2023-04-24T09:07:52;4.57;;;2.40;;
19877;SDS011;10101;52.204;9.910;2023-04-24T09:10:21;3.80;;;2.90;;
19877;SDS011;10101;52.204;9.910;2023-04-24T09:12:49;4.43;;;3.10;;
19877;SDS011;10101;52.204;9.910;2023-04-24T09:15:17;4.83;;;3.23;;
19877;SDS011;10101;52.204;9.910;2023-04-24T09:17:45;3.60;;;2.90;;
19877;SDS011;10101;52.204;9.910;2023-04-24T09:20:12;5.73;;;3.47;;
19877;SDS011;10101;52.204;9.910;2023-04-24T09:22:39;5.17;;;3.10;;
19877;SDS011;10101;52.204;9.910;2023-04-24T09:25:08;3.30;;;2.53;;
19877;SDS011;10101;52.204;9.910;2023-04-24T09:27:38;3.07;;;2.47;;
19877;SDS011;10101;52.204;9.910;2023-04-24T09:30:09;3.33;;;2.30;;
19877;SDS011;10101;52.204;9.910;2023-04-24T09:32:36;3.53;;;2.77;;
19877;SDS011;10101;52.204;9.910;2023-04-24T09:35:07;4.53;;;2.80;;
19877;SDS011;10101;52.204;9.910;2023-04-24T09:37:35;3.67;;;2.50;;
19877;SDS011;10101;52.204;9.910;2023-04-24T09:40:15;5.73;;;2.43;;
19877;SDS011;10101;52.204;9.910;2023-04-24T09:42:45;3.80;;;3.37;;
19877;SDS011;10101;52.204;9.910;2023-04-24T09:45:17;3.20;;;2.30;;
19877;SDS011;10101;52.204;9.910;2023-04-24T09:47:44;2.63;;;2.20;;
19877;SDS011;10101;52.204;9.910;2023-04-24T09:50:12;2.67;;;2.07;;
19877;SDS011;10101;52.204;9.910;2023-04-24T09:52:41;2.13;;;1.77;;
19877;SDS011;10101;52.204;9.910;2023-04-24T09:55:18;2.50;;;1.80;;
19877;SDS011;10101;52.204;9.910;2023-04-24T09:57:49;3.07;;;1.80;;
19877;SDS011;10101;52.204;9.910;2023-04-24T10:00:23;2.27;;;1.80;;
19877;SDS011;10101;52.204;9.910;2023-04-24T10:02:55;3.20;;;1.43;;
19877;SDS011;10101;52.204;9.910;2023-04-24T10:05:23;2.67;;;1.90;;
19877;SDS011;10101;52.204;9.910;2023-04-24T10:07:51;2.20;;;1.53;;
19877;SDS011;10101;52.204;9.910;2023-04-24T10:10:23;2.00;;;1.70;;
19877;SDS011;10101;52.204;9.910;2023-04-24T10:12:50;2.20;;;1.47;;
19877;SDS011;10101;52.204;9.910;2023-04-24T10:15:17;1.93;;;1.20;;
19877;SDS011;10101;52.204;9.910;2023-04-24T10:17:46;1.90;;;1.40;;
19877;SDS011;10101;52.204;9.910;2023-04-24T10:20:17;2.30;;;1.37;;
19877;SDS011;10101;52.204;9.910;2023-04-24T10:22:45;1.97;;;1.73;;
19877;SDS011;10101;52.204;9.910;2023-04-24T10:25:16;2.57;;;1.77;;
19877;SDS011;10101;52.204;9.910;2023-04-24T10:27:46;1.70;;;1.50;;
19877;SDS011;10101;52.204;9.910;2023-04-24T10:30:13;1.73;;;1.53;;
19877;SDS011;10101;52.204;9.910;2023-04-24T10:32:40;2.50;;;1.93;;
19877;SDS011;10101;52.204;9.910;2023-04-24T10:35:07;1.53;;;1.43;;
19877;SDS011;10101;52.204;9.910;2023-04-24T10:37:36;2.33;;;1.80;;
19877;SDS011;10101;52.204;9.910;2023-04-24T10:40:05;2.23;;;1.50;;
19877;SDS011;10101;52.204;9.910;2023-04-24T10:42:34;3.47;;;1.60;;
19877;SDS011;10101;52.204;9.910;2023-04-24T10:45:07;1.97;;;1.70;;
19877;SDS011;10101;52.204;9.910;2023-04-24T10:47:50;4.57;;;1.80;;
19877;SDS011;10101;52.204;9.910;2023-04-24T10:50:18;3.50;;;1.70;;
19877;SDS011;10101;52.204;9.910;2023-04-24T10:52:45;3.10;;;1.67;;
19877;SDS011;10101;52.204;9.910;2023-04-24T10:55:13;2.60;;;1.70;;
19877;SDS011;10101;52.204;9.910;2023-04-24T10:57:40;1.60;;;1.50;;
19877;SDS011;10101;52.204;9.910;2023-04-24T11:00:29;3.37;;;1.70;;
19877;SDS011;10101;52.204;9.910;2023-04-24T11:02:56;3.43;;;2.00;;
19877;SDS011;10101;52.204;9.910;2023-04-24T11:05:48;1.57;;;1.47;;
19877;SDS011;10101;52.204;9.910;2023-04-24T11:08:23;5.93;;;2.83;;
19877;SDS011;10101;52.204;9.910;2023-04-24T11:10:55;1.43;;;1.20;;
19877;SDS011;10101;52.204;9.910;2023-04-24T11:13:24;1.23;;;1.13;;
19877;SDS011;10101;52.204;9.910;2023-04-24T11:18:50;1.27;;;1.17;;
19877;SDS011;10101;52.204;9.910;2023-04-24T11:21:19;1.10;;;1.00;;
19877;SDS011;10101;52.204;9.910;2023-04-24T11:23:48;0.80;;;0.80;;
19877;SDS011;10101;52.204;9.910;2023-04-24T11:26:17;1.03;;;0.93;;
19877;SDS011;10101;52.204;9.910;2023-04-24T11:28:46;1.10;;;1.00;;
19877;SDS011;10101;52.204;9.910;2023-04-24T11:31:35;0.87;;;0.87;;
19877;SDS011;10101;52.204;9.910;2023-04-24T11:34:09;1.23;;;1.10;;
19877;SDS011;10101;52.204;9.910;2023-04-24T11:36:37;2.87;;;0.90;;
19877;SDS011;10101;52.204;9.910;2023-04-24T11:39:04;1.10;;;1.00;;
19877;SDS011;10101;52.204;9.910;2023-04-24T11:41:31;1.60;;;1.10;;
19877;SDS011;10101;52.204;9.910;2023-04-24T11:43:58;1.83;;;1.00;;
19877;SDS011;10101;52.204;9.910;2023-04-24T11:46:28;1.37;;;1.20;;
19877;SDS011;10101;52.204;9.910;2023-04-24T11:48:58;1.30;;;1.10;;
19877;SDS011;10101;52.204;9.910;2023-04-24T11:51:26;1.40;;;1.30;;
19877;SDS011;10101;52.204;9.910;2023-04-24T11:53:55;1.43;;;1.20;;
19877;SDS011;10101;52.204;9.910;2023-04-24T11:56:22;1.67;;;1.00;;
19877;SDS011;10101;52.204;9.910;2023-04-24T11:58:51;1.87;;;1.00;;
19877;SDS011;10101;52.204;9.910;2023-04-24T12:01:18;2.60;;;1.33;;
19877;SDS011;10101;52.204;9.910;2023-04-24T12:03:47;2.40;;;1.10;;
19877;SDS011;10101;52.204;9.910;2023-04-24T12:06:17;1.37;;;1.27;;
19877;SDS011;10101;52.204;9.910;2023-04-24T12:08:47;1.10;;;1.00;;
19877;SDS011;10101;52.204;9.910;2023-04-24T12:11:14;1.37;;;1.27;;
19877;SDS011;10101;52.204;9.910;2023-04-24T12:13:43;1.10;;;1.00;;
19877;SDS011;10101;52.204;9.910;2023-04-24T12:16:11;1.20;;;1.10;;
19877;SDS011;10101;52.204;9.910;2023-04-24T12:18:41;2.33;;;1.20;;
19877;SDS011;10101;52.204;9.910;2023-04-24T12:21:16;1.40;;;1.20;;
19877;SDS011;10101;52.204;9.910;2023-04-24T12:23:43;0.97;;;0.97;;
19877;SDS011;10101;52.204;9.910;2023-04-24T12:26:11;0.47;;;0.47;;
19877;SDS011;10101;52.204;9.910;2023-04-24T12:28:38;0.40;;;0.40;;
19877;SDS011;10101;52.204;9.910;2023-04-24T12:31:05;0.70;;;0.70;;
19877;SDS011;10101;52.204;9.910;2023-04-24T12:33:33;0.60;;;0.60;;
19877;SDS011;10101;52.204;9.910;2023-04-24T12:36:01;1.03;;;0.90;;
19877;SDS011;10101;52.204;9.910;2023-04-24T12:38:30;0.80;;;0.80;;
19877;SDS011;10101;52.204;9.910;2023-04-24T12:41:05;1.20;;;1.10;;
19877;SDS011;10101;52.204;9.910;2023-04-24T12:43:32;1.00;;;0.90;;
19877;SDS011;10101;52.204;9.910;2023-04-24T12:46:00;0.90;;;0.90;;
19877;SDS011;10101;52.204;9.910;2023-04-24T12:48:27;0.83;;;0.80;;
19877;SDS011;10101;52.204;9.910;2023-04-24T12:50:54;1.70;;;0.80;;
19877;SDS011;10101;52.204;9.910;2023-04-24T12:53:21;1.10;;;1.00;;
19877;SDS011;10101;52.204;9.910;2023-04-24T12:55:52;1.20;;;1.10;;
19877;SDS011;10101;52.204;9.910;2023-04-24T12:58:19;1.27;;;1.07;;
19877;SDS011;10101;52.204;9.910;2023-04-24T13:00:46;0.80;;;0.80;;
19877;SDS011;10101;52.204;9.910;2023-04-24T13:03:14;1.23;;;1.00;;
19877;SDS011;10101;52.204;9.910;2023-04-24T13:05:41;4.03;;;0.90;;
19877;SDS011;10101;52.204;9.910;2023-04-24T13:08:08;1.10;;;1.00;;
19877;SDS011;10101;52.204;9.910;2023-04-24T13:10:35;1.87;;;1.10;;
19877;SDS011;10101;52.204;9.910;2023-04-24T13:13:03;1.47;;;1.30;;
19877;SDS011;10101;52.204;9.910;2023-04-24T13:15:30;1.00;;;0.90;;
19877;SDS011;10101;52.204;9.910;2023-04-24T13:17:57;0.93;;;0.93;;
19877;SDS011;10101;52.204;9.910;2023-04-24T13:20:24;0.93;;;0.93;;
19877;SDS011;10101;52.204;9.910;2023-04-24T13:22:51;0.90;;;0.90;;
19877;SDS011;10101;52.204;9.910;2023-04-24T13:25:17;0.60;;;0.60;;
19877;SDS011;10101;52.204;9.910;2023-04-24T13:27:45;0.50;;;0.50;;
19877;SDS011;10101;52.204;9.910;2023-04-24T13:30:13;1.27;;;0.50;;
19877;SDS011;10101;52.204;9.910;2023-04-24T13:32:40;0.50;;;0.50;;
19877;SDS011;10101;52.204;9.910;2023-04-24T13:35:07;0.57;;;0.57;;
19877;SDS011;10101;52.204;9.910;2023-04-24T13:37:34;0.70;;;0.70;;
19877;SDS011;10101;52.204;9.910;2023-04-24T13:40:01;1.67;;;0.60;;
19877;SDS011;10101;52.204;9.910;2023-04-24T13:42:30;0.50;;;0.50;;
19877;SDS011;10101;52.204;9.910;2023-04-24T13:44:57;0.50;;;0.50;;
19877;SDS011;10101;52.204;9.910;2023-04-24T13:47:26;0.50;;;0.50;;
19877;SDS011;10101;52.204;9.910;2023-04-24T13:49:52;0.60;;;0.60;;
19877;SDS011;10101;52.204;9.910;2023-04-24T13:52:19;0.57;;;0.57;;
19877;SDS011;10101;52.204;9.910;2023-04-24T13:54:46;0.63;;;0.63;;
19877;SDS011;10101;52.204;9.910;2023-04-24T13:57:13;0.73;;;0.47;;
19877;SDS011;10101;52.204;9.910;2023-04-24T13:59:40;0.53;;;0.50;;
19877;SDS011;10101;52.204;9.910;2023-04-24T14:02:07;0.67;;;0.50;;
19877;SDS011;10101;52.204;9.910;2023-04-24T14:04:35;0.40;;;0.40;;
19877;SDS011;10101;52.204;9.910;2023-04-24T14:07:01;0.40;;;0.40;;
19877;SDS011;10101;52.204;9.910;2023-04-24T14:09:28;0.60;;;0.47;;
19877;SDS011;10101;52.204;9.910;2023-04-24T14:11:55;0.50;;;0.50;;
19877;SDS011;10101;52.204;9.910;2023-04-24T14:14:22;0.37;;;0.37;;
19877;SDS011;10101;52.204;9.910;2023-04-24T14:16:49;0.40;;;0.40;;
19877;SDS011;10101;52.204;9.910;2023-04-24T14:19:16;0.43;;;0.43;;
19877;SDS011;10101;52.204;9.910;2023-04-24T14:21:44;0.40;;;0.40;;
19877;SDS011;10101;52.204;9.910;2023-04-24T14:24:10;0.53;;;0.53;;
19877;SDS011;10101;52.204;9.910;2023-04-24T14:26:37;0.50;;;0.50;;
19877;SDS011;10101;52.204;9.910;2023-04-24T14:29:04;0.87;;;0.50;;
19877;SDS011;10101;52.204;9.910;2023-04-24T14:31:30;0.50;;;0.50;;
19877;SDS011;10101;52.204;9.910;2023-04-24T14:33:57;0.80;;;0.73;;
19877;SDS011;10101;52.204;9.910;2023-04-24T14:36:24;0.60;;;0.60;;
19877;SDS011;10101;52.204;9.910;2023-04-24T14:38:52;0.80;;;0.80;;
19877;SDS011;10101;52.204;9.910;2023-04-24T14:41:19;0.70;;;0.70;;
19877;SDS011;10101;52.204;9.910;2023-04-24T14:43:45;1.50;;;0.90;;
19877;SDS011;10101;52.204;9.910;2023-04-24T14:46:12;0.77;;;0.70;;
19877;SDS011;10101;52.204;9.910;2023-04-24T14:48:39;1.20;;;1.10;;
19877;SDS011;10101;52.204;9.910;2023-04-24T14:51:06;0.90;;;0.90;;
19877;SDS011;10101;52.204;9.910;2023-04-24T14:53:33;1.10;;;1.00;;